Time;durP1;ratioP1;P1;durP2;ratioP2;P2;SDS_P1;SDS_P2;PMS_P1;PMS_P2;Temp;Humidity;BMP_temperature;BMP_pressure;BME280_temperature;BME280_humidity;BME280_pressure;Samples;Min_cycle;Max_cycle;Signal;HPM_P1;HPM_P2
2023/12/01 00:01:57;;;;;;;49.58;21.00;;;;;;;;;;5003602;28;20034;-78
2023/12/01 00:04:23;;;;;;;45.67;20.73;;;;;;;;;;4971279;28;20049;-81
2023/12/01 00:06:49;;;;;;;51.58;23.17;;;;;;;;;;4971362;28;20044;-79
2023/12/01 00:09:15;;;;;;;45.85;21.15;;;;;;;;;;4965712;28;20034;-78
2023/12/01 00:11:41;;;;;;;51.95;22.67;;;;;;;;;;4955464;28;20062;-81
2023/12/01 00:14:07;;;;;;;47.85;21.65;;;;;;;;;;4969106;28;20483;-80
2023/12/01 00:16:34;;;;;;;48.28;20.77;;;;;;;;;;4983659;28;20417;-79
2023/12/01 00:19:00;;;;;;;47.38;19.27;;;;;;;;;;4988710;28;20394;-80
2023/12/01 00:21:26;;;;;;;50.17;21.70;;;;;;;;;;4970642;28;20062;-80
2023/12/01 00:23:52;;;;;;;46.55;20.27;;;;;;;;;;4970381;28;20111;-79
2023/12/01 00:26:18;;;;;;;49.47;21.05;;;;;;;;;;4982304;28;20092;-81
2023/12/01 00:28:44;;;;;;;51.78;21.65;;;;;;;;;;4982723;28;20387;-81
2023/12/01 00:31:10;;;;;;;46.15;20.00;;;;;;;;;;5001002;28;20042;-82
2023/12/01 00:33:36;;;;;;;40.15;17.67;;;;;;;;;;4985868;28;20050;-79
2023/12/01 00:36:02;;;;;;;40.70;18.52;;;;;;;;;;4967262;28;20053;-84
2023/12/01 00:38:28;;;;;;;42.20;18.75;;;;;;;;;;4946902;28;20057;-83
2023/12/01 00:40:54;;;;;;;42.58;19.65;;;;;;;;;;4984609;28;20044;-81
2023/12/01 00:43:20;;;;;;;42.75;19.55;;;;;;;;;;4966976;28;20042;-84
2023/12/01 00:45:46;;;;;;;43.83;18.55;;;;;;;;;;4969728;28;20073;-81
2023/12/01 00:48:12;;;;;;;38.30;17.65;;;;;;;;;;4966167;28;20101;-83
2023/12/01 00:50:39;;;;;;;38.55;17.63;;;;;;;;;;4986040;28;20126;-82
2023/12/01 00:53:05;;;;;;;42.80;18.00;;;;;;;;;;4965415;28;20054;-83
2023/12/01 00:55:31;;;;;;;40.55;19.65;;;;;;;;;;5000018;28;20038;-85
2023/12/01 00:57:57;;;;;;;41.33;18.85;;;;;;;;;;4969555;28;20509;-85
2023/12/01 01:00:24;;;;;;;41.03;17.85;;;;;;;;;;4987776;28;20047;-86
2023/12/01 01:02:50;;;;;;;38.40;17.45;;;;;;;;;;5002276;28;20046;-87
2023/12/01 01:05:17;;;;;;;37.28;17.17;;;;;;;;;;4955849;28;20120;-81
2023/12/01 01:07:43;;;;;;;38.42;16.98;;;;;;;;;;4967277;28;20053;-86
2023/12/01 01:10:09;;;;;;;35.13;16.13;;;;;;;;;;4999162;28;20042;-86
2023/12/01 01:12:35;;;;;;;34.13;15.85;;;;;;;;;;4966441;28;20046;-85
2023/12/01 01:15:03;;;;;;;37.97;17.65;;;;;;;;;;4970364;28;20611;-83
2023/12/01 01:17:32;;;;;;;35.38;16.65;;;;;;;;;;4969835;28;20030;-86
2023/12/01 01:19:58;;;;;;;37.17;17.17;;;;;;;;;;4970793;28;20070;-85
2023/12/01 01:22:27;;;;;;;32.35;14.73;;;;;;;;;;4966913;28;20122;-85
2023/12/01 01:24:53;;;;;;;30.85;14.82;;;;;;;;;;5000196;28;20502;-86
2023/12/01 01:27:20;;;;;;;30.20;15.40;;;;;;;;;;4982356;28;20038;-85
2023/12/01 01:29:46;;;;;;;29.60;14.20;;;;;;;;;;4967205;28;20042;-87
2023/12/01 01:32:12;;;;;;;28.70;15.00;;;;;;;;;;4973176;28;20549;-84
2023/12/01 01:34:39;;;;;;;27.67;13.18;;;;;;;;;;4966838;28;20042;-87
2023/12/01 01:37:07;;;;;;;26.17;13.10;;;;;;;;;;4984725;28;20039;-89
2023/12/01 01:39:34;;;;;;;23.35;12.50;;;;;;;;;;4968580;28;20093;-85
2023/12/01 01:42:03;;;;;;;23.35;12.30;;;;;;;;;;4985918;28;20074;-84
2023/12/01 01:44:29;;;;;;;26.23;13.23;;;;;;;;;;4982441;28;20042;-81
2023/12/01 01:46:55;;;;;;;29.23;13.50;;;;;;;;;;4988278;28;20097;-79
2023/12/01 01:49:25;;;;;;;26.05;13.05;;;;;;;;;;4970438;28;20559;-80
2023/12/01 01:51:52;;;;;;;22.75;12.20;;;;;;;;;;4984328;28;20046;-80
2023/12/01 01:54:19;;;;;;;25.30;13.00;;;;;;;;;;4954715;28;20085;-80
2023/12/01 01:56:46;;;;;;;26.05;13.55;;;;;;;;;;4969612;28;20073;-81
2023/12/01 01:59:13;;;;;;;26.17;12.35;;;;;;;;;;4947057;28;20034;-80
2023/12/01 02:01:39;;;;;;;26.20;12.90;;;;;;;;;;4970094;28;20088;-80
2023/12/01 02:04:09;;;;;;;26.00;12.25;;;;;;;;;;4997669;28;20042;-80
2023/12/01 02:06:35;;;;;;;29.58;13.45;;;;;;;;;;4961840;28;20096;-80
2023/12/01 02:09:05;;;;;;;28.88;14.13;;;;;;;;;;4965032;28;20050;-81
2023/12/01 02:11:31;;;;;;;28.48;12.75;;;;;;;;;;4986609;28;20568;-80
2023/12/01 02:13:59;;;;;;;28.02;13.82;;;;;;;;;;4980756;28;20046;-80
2023/12/01 02:16:26;;;;;;;28.33;12.70;;;;;;;;;;4985985;28;20510;-80
2023/12/01 02:18:55;;;;;;;24.80;12.32;;;;;;;;;;4969545;28;20078;-80
2023/12/01 02:21:25;;;;;;;24.92;11.93;;;;;;;;;;4982234;28;20039;-81
2023/12/01 02:23:52;;;;;;;23.65;12.43;;;;;;;;;;4969419;28;20092;-80
2023/12/01 02:26:18;;;;;;;25.02;12.43;;;;;;;;;;4965646;28;20129;-80
2023/12/01 02:28:44;;;;;;;24.27;12.55;;;;;;;;;;4966121;28;20105;-80
2023/12/01 02:31:10;;;;;;;25.42;12.10;;;;;;;;;;4966987;28;20043;-78
2023/12/01 02:33:36;;;;;;;22.50;11.90;;;;;;;;;;4966494;28;20133;-79
2023/12/01 02:36:04;;;;;;;24.23;11.80;;;;;;;;;;4969638;28;20130;-80
2023/12/01 02:38:30;;;;;;;23.42;11.80;;;;;;;;;;4997465;28;20142;-81
2023/12/01 02:40:57;;;;;;;21.13;10.88;;;;;;;;;;4969907;28;20074;-80
2023/12/01 02:43:24;;;;;;;23.77;12.10;;;;;;;;;;4966961;28;20046;-80
2023/12/01 02:45:50;;;;;;;21.83;12.10;;;;;;;;;;4969235;28;20065;-81
2023/12/01 02:48:16;;;;;;;26.38;12.77;;;;;;;;;;4983167;28;21246;-79
2023/12/01 02:50:45;;;;;;;25.33;13.15;;;;;;;;;;4984350;28;20038;-80
2023/12/01 02:53:11;;;;;;;25.65;12.35;;;;;;;;;;4984257;28;20080;-80
2023/12/01 02:55:37;;;;;;;23.65;13.15;;;;;;;;;;4969658;28;20066;-80
2023/12/01 02:58:05;;;;;;;25.70;12.50;;;;;;;;;;4966952;28;20050;-80
2023/12/01 03:00:31;;;;;;;23.83;12.68;;;;;;;;;;4951593;28;20502;-80
2023/12/01 03:02:57;;;;;;;24.27;12.40;;;;;;;;;;4983236;28;20081;-79
2023/12/01 03:05:24;;;;;;;21.42;11.98;;;;;;;;;;4969912;28;20038;-80
2023/12/01 03:07:50;;;;;;;24.55;12.38;;;;;;;;;;4989212;28;20572;-81
2023/12/01 03:10:16;;;;;;;25.92;13.23;;;;;;;;;;4969237;28;20132;-81
2023/12/01 03:12:44;;;;;;;22.48;12.82;;;;;;;;;;4973216;28;20574;-80
2023/12/01 03:15:14;;;;;;;23.60;12.27;;;;;;;;;;4998766;28;20049;-80
2023/12/01 03:17:40;;;;;;;21.38;11.40;;;;;;;;;;4978473;28;20102;-79
2023/12/01 03:20:10;;;;;;;24.10;12.48;;;;;;;;;;4973405;28;20042;-78
2023/12/01 03:22:41;;;;;;;23.40;12.05;;;;;;;;;;4988257;28;20478;-79
2023/12/01 03:25:09;;;;;;;21.85;11.05;;;;;;;;;;4968663;28;20030;-79
2023/12/01 03:27:37;;;;;;;23.60;11.75;;;;;;;;;;4947550;28;20053;-80
2023/12/01 03:30:03;;;;;;;24.48;11.95;;;;;;;;;;5002638;28;20451;-79
2023/12/01 03:32:29;;;;;;;22.05;11.77;;;;;;;;;;4971833;28;20049;-80
2023/12/01 03:34:55;;;;;;;24.40;11.88;;;;;;;;;;4969422;28;20487;-82
2023/12/01 03:37:21;;;;;;;24.98;12.25;;;;;;;;;;4987472;28;20046;-80
2023/12/01 03:39:48;;;;;;;24.00;12.23;;;;;;;;;;4969381;28;20106;-80
2023/12/01 03:42:14;;;;;;;25.17;12.00;;;;;;;;;;4966483;28;20157;-79
2023/12/01 03:44:40;;;;;;;25.63;12.68;;;;;;;;;;4965570;28;20078;-82
2023/12/01 03:47:08;;;;;;;26.75;13.20;;;;;;;;;;4996044;28;20125;-79
2023/12/01 03:49:34;;;;;;;24.40;12.32;;;;;;;;;;4999819;28;20050;-79
2023/12/01 03:52:00;;;;;;;23.15;11.95;;;;;;;;;;4975360;28;20053;-79
2023/12/01 03:54:26;;;;;;;29.02;13.07;;;;;;;;;;4988834;28;20049;-79
2023/12/01 03:56:54;;;;;;;25.88;13.20;;;;;;;;;;4969593;28;20126;-79
2023/12/01 03:59:20;;;;;;;28.27;12.93;;;;;;;;;;4967835;28;20066;-79
2023/12/01 04:01:46;;;;;;;22.45;10.88;;;;;;;;;;4987344;28;20532;-79
2023/12/01 04:04:12;;;;;;;29.98;12.82;;;;;;;;;;4969428;28;20043;-79
2023/12/01 04:06:42;;;;;;;25.48;12.45;;;;;;;;;;4989266;28;20041;-78
2023/12/01 04:09:10;;;;;;;23.08;11.82;;;;;;;;;;4969697;28;20049;-82
2023/12/01 04:11:39;;;;;;;25.23;13.02;;;;;;;;;;4990312;28;20560;-79
2023/12/01 04:14:05;;;;;;;25.48;12.55;;;;;;;;;;5004039;28;20064;-77
2023/12/01 04:16:32;;;;;;;27.63;13.95;;;;;;;;;;4998391;28;20035;-78
2023/12/01 04:18:58;;;;;;;25.92;13.68;;;;;;;;;;4971509;28;20811;-77
2023/12/01 04:21:24;;;;;;;24.08;12.82;;;;;;;;;;4973979;28;20113;-78
2023/12/01 04:23:52;;;;;;;26.77;13.50;;;;;;;;;;4971192;28;20042;-78
2023/12/01 04:26:18;;;;;;;25.92;13.75;;;;;;;;;;5004911;28;20038;-82
2023/12/01 04:28:45;;;;;;;28.35;13.95;;;;;;;;;;4971572;28;20057;-88
2023/12/01 04:31:11;;;;;;;27.90;14.45;;;;;;;;;;4972852;28;20066;-87
2023/12/01 04:33:37;;;;;;;24.25;12.32;;;;;;;;;;4959836;28;20046;-86
2023/12/01 04:36:06;;;;;;;26.95;13.35;;;;;;;;;;4973615;28;20133;-87
2023/12/01 04:38:34;;;;;;;29.45;13.80;;;;;;;;;;4970683;28;20086;-88
2023/12/01 04:41:02;;;;;;;25.08;13.48;;;;;;;;;;5003321;28;20051;-88
2023/12/01 04:43:30;;;;;;;34.88;15.02;;;;;;;;;;5000398;28;20042;-83
2023/12/01 04:45:57;;;;;;;30.05;14.73;;;;;;;;;;4968128;28;20039;-87
2023/12/01 04:48:23;;;;;;;30.75;15.02;;;;;;;;;;4971997;28;20046;-82
2023/12/01 04:50:49;;;;;;;32.60;15.32;;;;;;;;;;4970878;28;20487;-88
2023/12/01 04:53:15;;;;;;;31.90;15.73;;;;;;;;;;5005541;28;20042;-85
2023/12/01 04:55:41;;;;;;;32.15;16.25;;;;;;;;;;5006784;28;21113;-87
2023/12/01 04:58:07;;;;;;;33.58;15.60;;;;;;;;;;4975369;28;20046;-87
2023/12/01 05:00:33;;;;;;;33.13;17.70;;;;;;;;;;5005066;28;20042;-85
2023/12/01 05:03:01;;;;;;;34.03;16.73;;;;;;;;;;4967788;28;20696;-81
2023/12/01 05:05:28;;;;;;;36.13;17.90;;;;;;;;;;4981601;28;21104;-84
2023/12/01 05:07:57;;;;;;;39.28;19.48;;;;;;;;;;4979913;28;20053;-83
2023/12/01 05:10:24;;;;;;;38.38;18.70;;;;;;;;;;4986612;28;20203;-84
2023/12/01 05:12:51;;;;;;;37.13;18.80;;;;;;;;;;4968865;28;20045;-86
2023/12/01 05:15:18;;;;;;;40.80;19.25;;;;;;;;;;4997060;28;20077;-87
2023/12/01 05:17:59;;;;;;;41.70;19.17;;;;;;;;;;4969234;28;20104;-81
2023/12/01 05:20:27;;;;;;;44.40;20.27;;;;;;;;;;4983892;28;20039;-80
2023/12/01 05:22:57;;;;;;;42.20;20.52;;;;;;;;;;4983138;28;20391;-81
2023/12/01 05:25:27;;;;;;;43.95;19.67;;;;;;;;;;4983814;28;20434;-81
2023/12/01 05:27:57;;;;;;;39.00;20.10;;;;;;;;;;4968932;28;20133;-80
2023/12/01 05:30:26;;;;;;;42.13;18.33;;;;;;;;;;4984541;28;20054;-79
2023/12/01 05:32:53;;;;;;;35.63;18.80;;;;;;;;;;4978694;28;20043;-77
2023/12/01 05:35:19;;;;;;;38.88;19.25;;;;;;;;;;4970135;28;20121;-79
2023/12/01 05:37:47;;;;;;;37.50;17.88;;;;;;;;;;4981631;28;20038;-80
2023/12/01 05:40:21;;;;;;;38.72;19.40;;;;;;;;;;4969951;28;20077;-78
2023/12/01 05:42:52;;;;;;;35.65;17.65;;;;;;;;;;4969598;28;20057;-80
2023/12/01 05:45:20;;;;;;;38.13;19.10;;;;;;;;;;4972024;28;21045;-81
2023/12/01 05:47:47;;;;;;;33.75;16.77;;;;;;;;;;4986466;28;20521;-80
2023/12/01 05:50:17;;;;;;;36.33;18.08;;;;;;;;;;4981499;28;20148;-82
2023/12/01 05:52:45;;;;;;;34.47;18.50;;;;;;;;;;4982881;28;20092;-80
2023/12/01 05:55:15;;;;;;;34.72;17.63;;;;;;;;;;4984770;28;20375;-80
2023/12/01 05:57:42;;;;;;;36.20;17.63;;;;;;;;;;4984251;28;20034;-79
2023/12/01 06:00:12;;;;;;;35.70;16.27;;;;;;;;;;4967331;28;20042;-80
2023/12/01 06:02:43;;;;;;;34.25;17.73;;;;;;;;;;4971421;28;20041;-79
2023/12/01 06:05:11;;;;;;;36.38;18.10;;;;;;;;;;4986067;28;20060;-79
2023/12/01 06:07:38;;;;;;;36.65;17.75;;;;;;;;;;4996889;28;20038;-81
2023/12/01 06:10:05;;;;;;;32.03;17.15;;;;;;;;;;5000971;28;20148;-76
2023/12/01 06:12:33;;;;;;;33.45;16.63;;;;;;;;;;4955101;28;20058;-78
2023/12/01 06:15:00;;;;;;;32.13;16.52;;;;;;;;;;4980062;28;20062;-78
2023/12/01 06:17:26;;;;;;;34.28;18.25;;;;;;;;;;4984075;28;20269;-77
2023/12/01 06:19:52;;;;;;;33.13;16.98;;;;;;;;;;4998373;28;20042;-76
2023/12/01 06:22:18;;;;;;;34.15;17.83;;;;;;;;;;4969110;28;20058;-76
2023/12/01 06:24:44;;;;;;;31.83;17.55;;;;;;;;;;4970839;28;20394;-77
2023/12/01 06:27:11;;;;;;;40.45;18.88;;;;;;;;;;4969582;28;20549;-79
2023/12/01 06:29:38;;;;;;;33.63;16.52;;;;;;;;;;4972066;28;20054;-81
2023/12/01 06:32:04;;;;;;;34.58;18.75;;;;;;;;;;4971853;28;20430;-81
2023/12/01 06:34:31;;;;;;;33.30;16.60;;;;;;;;;;4984083;28;20486;-81
2023/12/01 06:36:59;;;;;;;38.88;17.98;;;;;;;;;;4973431;28;20037;-80
2023/12/01 06:39:25;;;;;;;33.83;17.90;;;;;;;;;;4968536;28;20053;-80
2023/12/01 06:41:55;;;;;;;34.83;18.05;;;;;;;;;;4971819;28;20574;-79
2023/12/01 06:44:21;;;;;;;33.92;16.33;;;;;;;;;;4971777;28;20045;-81
2023/12/01 06:46:47;;;;;;;33.38;17.83;;;;;;;;;;5006789;28;20043;-79
2023/12/01 06:49:13;;;;;;;35.30;16.15;;;;;;;;;;4989980;28;20078;-82
2023/12/01 06:51:39;;;;;;;30.92;16.52;;;;;;;;;;4972552;28;20057;-82
2023/12/01 06:54:09;;;;;;;34.28;17.98;;;;;;;;;;4974222;28;20542;-82
2023/12/01 06:56:36;;;;;;;37.03;17.60;;;;;;;;;;4973444;28;20505;-82
2023/12/01 06:59:08;;;;;;;29.88;16.48;;;;;;;;;;4973051;28;20722;-83
2023/12/01 07:01:35;;;;;;;31.85;17.00;;;;;;;;;;4968966;28;20089;-82
2023/12/01 07:04:07;;;;;;;32.08;16.33;;;;;;;;;;4989957;28;20046;-83
2023/12/01 07:06:34;;;;;;;34.10;17.48;;;;;;;;;;4975886;28;20126;-82
2023/12/01 07:09:01;;;;;;;32.08;16.52;;;;;;;;;;4991278;28;20047;-82
2023/12/01 07:11:27;;;;;;;35.45;17.23;;;;;;;;;;5003860;28;20497;-83
2023/12/01 07:13:53;;;;;;;35.03;17.55;;;;;;;;;;4972768;28;20038;-83
2023/12/01 07:16:20;;;;;;;32.97;16.80;;;;;;;;;;5004131;28;20093;-83
2023/12/01 07:18:46;;;;;;;32.83;16.98;;;;;;;;;;4991967;28;20050;-81
2023/12/01 07:21:12;;;;;;;33.90;17.00;;;;;;;;;;4988729;28;20050;-82
2023/12/01 07:23:40;;;;;;;32.53;16.85;;;;;;;;;;5007974;28;20073;-82
2023/12/01 07:26:07;;;;;;;31.52;15.98;;;;;;;;;;4973765;28;20085;-81
2023/12/01 07:28:33;;;;;;;35.55;18.35;;;;;;;;;;4991585;28;20050;-82
2023/12/01 07:31:00;;;;;;;33.67;17.23;;;;;;;;;;4972238;28;20046;-83
2023/12/01 07:33:27;;;;;;;34.13;17.10;;;;;;;;;;4958554;28;20124;-82
2023/12/01 07:35:57;;;;;;;32.03;16.85;;;;;;;;;;4957251;28;20112;-83
2023/12/01 07:38:23;;;;;;;33.70;17.05;;;;;;;;;;4990549;28;20133;-87
2023/12/01 07:40:49;;;;;;;34.33;18.50;;;;;;;;;;4979626;28;20100;-88
2023/12/01 07:43:15;;;;;;;31.63;17.35;;;;;;;;;;4993104;28;20034;-86
2023/12/01 07:45:42;;;;;;;32.97;18.00;;;;;;;;;;4959696;28;20034;-89
2023/12/01 07:48:09;;;;;;;30.42;17.20;;;;;;;;;;5006024;28;20045;-92
2023/12/01 07:50:36;;;;;;;31.52;17.50;;;;;;;;;;5010417;28;20053;-89
2023/12/01 07:53:05;;;;;;;31.08;17.48;;;;;;;;;;4987496;28;20057;-88
2023/12/01 07:55:32;;;;;;;32.97;18.40;;;;;;;;;;4975764;28;20034;-91
2023/12/01 07:57:58;;;;;;;31.13;16.80;;;;;;;;;;5002088;28;20118;-84
2023/12/01 08:00:26;;;;;;;30.85;17.00;;;;;;;;;;4972700;28;20489;-86
2023/12/01 08:02:53;;;;;;;33.85;18.17;;;;;;;;;;4972464;28;20475;-83
2023/12/01 08:05:21;;;;;;;34.08;17.30;;;;;;;;;;4974004;28;20073;-83
2023/12/01 08:07:51;;;;;;;34.28;17.80;;;;;;;;;;4990224;28;20042;-83
2023/12/01 08:10:17;;;;;;;34.70;17.92;;;;;;;;;;4975357;28;20038;-83
2023/12/01 08:12:44;;;;;;;36.50;21.38;;;;;;;;;;4974871;28;20046;-82
2023/12/01 08:15:11;;;;;;;34.33;18.55;;;;;;;;;;4970870;28;20053;-83
2023/12/01 08:17:37;;;;;;;33.30;17.88;;;;;;;;;;5002733;28;20077;-84
2023/12/01 08:20:05;;;;;;;33.42;19.15;;;;;;;;;;5002418;28;20057;-84
2023/12/01 08:22:31;;;;;;;32.88;17.55;;;;;;;;;;5002512;28;20046;-83
2023/12/01 08:24:58;;;;;;;34.38;17.40;;;;;;;;;;4989299;28;20034;-84
2023/12/01 08:27:24;;;;;;;35.28;18.63;;;;;;;;;;4973303;28;20493;-84
2023/12/01 08:29:51;;;;;;;31.70;16.58;;;;;;;;;;5005197;28;20042;-85
2023/12/01 08:32:17;;;;;;;34.67;18.33;;;;;;;;;;4996023;28;20043;-83
2023/12/01 08:34:44;;;;;;;33.78;17.42;;;;;;;;;;4965135;28;20100;-83
2023/12/01 08:37:10;;;;;;;39.75;18.83;;;;;;;;;;4971304;28;20039;-83
2023/12/01 08:39:36;;;;;;;32.80;17.58;;;;;;;;;;4983613;28;20058;-82
2023/12/01 08:42:03;;;;;;;33.58;16.58;;;;;;;;;;4998084;28;20547;-84
2023/12/01 08:44:29;;;;;;;31.27;17.67;;;;;;;;;;4963668;28;20042;-83
2023/12/01 08:46:56;;;;;;;36.45;19.10;;;;;;;;;;4973999;28;20038;-78
2023/12/01 08:49:22;;;;;;;36.13;18.33;;;;;;;;;;4950717;28;20046;-79
2023/12/01 08:51:48;;;;;;;33.03;17.52;;;;;;;;;;4971209;28;20038;-79
2023/12/01 08:54:14;;;;;;;33.15;18.83;;;;;;;;;;4964322;28;20042;-79
2023/12/01 08:56:41;;;;;;;31.80;16.58;;;;;;;;;;4996180;28;20503;-79
2023/12/01 08:59:08;;;;;;;32.67;17.30;;;;;;;;;;4997539;28;20085;-80
2023/12/01 09:01:34;;;;;;;33.63;17.77;;;;;;;;;;4982373;28;20035;-80
2023/12/01 09:04:01;;;;;;;31.58;16.48;;;;;;;;;;4984702;28;20031;-81
2023/12/01 09:06:27;;;;;;;31.08;17.50;;;;;;;;;;4957126;28;20045;-83
2023/12/01 09:08:53;;;;;;;30.60;16.83;;;;;;;;;;4987642;28;20105;-83
2023/12/01 09:11:19;;;;;;;36.10;18.33;;;;;;;;;;4972042;28;20506;-82
2023/12/01 09:13:45;;;;;;;34.72;17.27;;;;;;;;;;4974554;28;20138;-82
2023/12/01 09:16:11;;;;;;;32.47;18.15;;;;;;;;;;4972651;28;20482;-82
2023/12/01 09:18:37;;;;;;;44.13;18.10;;;;;;;;;;4968915;28;20130;-80
2023/12/01 09:21:03;;;;;;;32.55;17.50;;;;;;;;;;4971488;28;20105;-80
2023/12/01 09:23:29;;;;;;;34.38;17.75;;;;;;;;;;4989265;28;20430;-81
2023/12/01 09:25:55;;;;;;;38.67;19.17;;;;;;;;;;4969953;28;20149;-81
2023/12/01 09:28:23;;;;;;;34.47;18.25;;;;;;;;;;4974759;28;20503;-82
2023/12/01 09:30:49;;;;;;;35.03;18.85;;;;;;;;;;4984102;28;20054;-81
2023/12/01 09:33:16;;;;;;;34.90;18.20;;;;;;;;;;4985044;28;20817;-83
2023/12/01 09:35:42;;;;;;;31.42;17.15;;;;;;;;;;4984292;28;20050;-81
2023/12/01 09:38:08;;;;;;;33.72;17.92;;;;;;;;;;4972666;28;20185;-82
2023/12/01 09:40:37;;;;;;;32.30;17.52;;;;;;;;;;4988967;28;20072;-83
2023/12/01 09:43:04;;;;;;;33.88;18.60;;;;;;;;;;4967095;28;20070;-83
2023/12/01 09:45:30;;;;;;;33.85;18.10;;;;;;;;;;4990133;28;20035;-83
2023/12/01 09:48:03;;;;;;;33.13;17.88;;;;;;;;;;5004020;28;20053;-83
2023/12/01 09:50:29;;;;;;;33.75;18.73;;;;;;;;;;4967304;28;20053;-83
2023/12/01 09:52:55;;;;;;;36.33;19.08;;;;;;;;;;4987116;28;20052;-83
2023/12/01 09:55:21;;;;;;;31.25;17.75;;;;;;;;;;4997078;28;20042;-82
2023/12/01 09:57:48;;;;;;;34.03;18.83;;;;;;;;;;4985488;28;20422;-85
2023/12/01 10:00:15;;;;;;;35.92;19.27;;;;;;;;;;5000064;28;20047;-86
2023/12/01 10:02:41;;;;;;;33.60;18.63;;;;;;;;;;4974756;28;20161;-85
2023/12/01 10:05:08;;;;;;;33.30;17.08;;;;;;;;;;5007349;28;20038;-85
2023/12/01 10:07:35;;;;;;;36.60;19.58;;;;;;;;;;4970504;28;20043;-86
2023/12/01 10:10:18;;;;;;;33.28;17.88;;;;;;;;;;4971421;28;20046;-86
2023/12/01 10:12:58;;;;;;;33.95;20.02;;;;;;;;;;4956896;28;20050;-82
2023/12/01 10:15:24;;;;;;;29.50;16.95;;;;;;;;;;4963532;28;20525;-84
2023/12/01 10:17:51;;;;;;;33.53;19.25;;;;;;;;;;4986129;28;20475;-84
2023/12/01 10:20:21;;;;;;;33.25;18.67;;;;;;;;;;4971961;28;20133;-82
2023/12/01 10:22:47;;;;;;;33.33;18.48;;;;;;;;;;4972536;28;20034;-83
2023/12/01 10:25:14;;;;;;;31.35;18.20;;;;;;;;;;4973358;28;20081;-82
2023/12/01 10:27:40;;;;;;;36.45;19.85;;;;;;;;;;4972774;28;20042;-83
2023/12/01 10:30:16;;;;;;;33.70;18.10;;;;;;;;;;4985399;28;20047;-84
2023/12/01 10:32:42;;;;;;;32.05;17.65;;;;;;;;;;4969229;28;20038;-81
2023/12/01 10:35:08;;;;;;;32.13;17.63;;;;;;;;;;4969480;28;20096;-81
2023/12/01 10:37:37;;;;;;;32.55;17.90;;;;;;;;;;5002483;28;20049;-82
2023/12/01 10:40:08;;;;;;;30.63;17.33;;;;;;;;;;4968071;28;20059;-82
2023/12/01 10:42:37;;;;;;;30.20;16.98;;;;;;;;;;4983810;28;20569;-82
2023/12/01 10:45:05;;;;;;;29.02;16.95;;;;;;;;;;4971141;28;20550;-83
2023/12/01 10:47:31;;;;;;;32.85;17.63;;;;;;;;;;4966240;28;20038;-83
2023/12/01 10:49:58;;;;;;;30.65;17.35;;;;;;;;;;5005413;28;20498;-83
2023/12/01 10:52:26;;;;;;;33.88;18.20;;;;;;;;;;4980294;28;20125;-82
2023/12/01 10:54:53;;;;;;;31.48;17.30;;;;;;;;;;4972461;28;20238;-82
2023/12/01 10:57:38;;;;;;;41.38;19.00;;;;;;;;;;4991062;28;20051;-81
2023/12/01 11:00:05;;;;;;;33.95;18.42;;;;;;;;;;4966615;28;20050;-82
2023/12/01 11:02:33;;;;;;;31.35;18.80;;;;;;;;;;5001045;28;20048;-83
2023/12/01 11:04:59;;;;;;;33.25;17.23;;;;;;;;;;4969499;28;20125;-82
2023/12/01 11:07:46;;;;;;;32.33;17.40;;;;;;;;;;4985843;28;20050;-86
2023/12/01 11:10:28;;;;;;;30.27;17.40;;;;;;;;;;4964571;28;20096;-84
2023/12/01 11:13:18;;;;;;;30.17;17.35;;;;;;;;;;4973169;28;20088;-88
2023/12/01 11:15:45;;;;;;;32.70;18.33;;;;;;;;;;4969856;28;20058;-86
2023/12/01 11:18:12;;;;;;;28.77;17.70;;;;;;;;;;4986118;28;20125;-86
2023/12/01 11:20:41;;;;;;;29.20;16.65;;;;;;;;;;4987435;28;20050;-88
2023/12/01 11:23:13;;;;;;;33.45;18.40;;;;;;;;;;4988330;28;20043;-87
2023/12/01 11:25:41;;;;;;;29.38;17.20;;;;;;;;;;4970895;28;20039;-87
2023/12/01 11:28:21;;;;;;;31.65;17.83;;;;;;;;;;4991794;28;20046;-78
2023/12/01 11:31:49;;;;;;;30.13;17.02;;;;;;;;;;5004788;28;20054;-80
2023/12/01 11:33:51;;;;;;;28.17;17.23;;;;;;;;;;4977026;28;20085;-79
2023/12/01 11:36:24;;;;;;;31.45;17.75;;;;;;;;;;4990411;28;20392;-80
2023/12/01 11:41:34;;;;;;;;;;;2.50;99.90;;;;;;4990568;28;20038;-78
2023/12/01 11:44:07;;;;;;;29.45;18.27;;;;;;;;;;4974982;28;19925;-78
2023/12/01 11:46:34;;;;;;;33.05;18.55;;;;;;;;;;4988673;28;20069;-77
2023/12/01 11:49:00;;;;;;;33.03;18.35;;;;;;;;;;4972616;28;20051;-78
2023/12/01 11:51:26;;;;;;;32.60;18.00;;;;;;;;;;4958146;28;20073;-78
2023/12/01 11:53:59;;;;;;;31.13;18.95;;;;;;;;;;4966613;28;20130;-78
2023/12/01 11:56:25;;;;;;;36.28;17.92;;;;;;;;;;4973217;28;20073;-76
2023/12/01 11:58:52;;;;;;;33.97;17.77;;;;;;;;;;4971553;28;20055;-80
2023/12/01 12:01:19;;;;;;;32.72;18.65;;;;;;;;;;5006107;28;20037;-78
2023/12/01 12:03:53;;;;;;;33.53;18.27;;;;;;;;;;4973425;28;20042;-78
2023/12/01 12:06:19;;;;;;;34.55;18.55;;;;;;;;;;5003874;28;20113;-77
2023/12/01 12:08:46;;;;;;;43.38;21.35;;;;;;;;;;5004811;28;20050;-77
2023/12/01 12:11:13;;;;;;;32.47;19.35;;;;;;;;;;4989181;28;20057;-79
2023/12/01 12:13:39;;;;;;;35.83;19.15;;;;;;;;;;4969816;28;20043;-77
2023/12/01 12:16:06;;;;;;;36.63;19.52;;;;;;;;;;5005238;28;20581;-78
2023/12/01 12:18:32;;;;;;;36.97;19.38;;;;;;;;;;4989333;28;20038;-80
2023/12/01 12:21:05;;;;;;;36.58;20.02;;;;;;;;;;4988757;28;20050;-80
2023/12/01 12:23:32;;;;;;;35.35;20.00;;;;;;;;;;4988352;28;20116;-79
2023/12/01 12:26:14;;;;;;;36.33;20.50;;;;;;;;;;4973183;28;20073;-80
2023/12/01 12:28:44;;;;;;;38.85;19.98;;;;;;;;;;5000585;28;20043;-79
2023/12/01 12:31:10;;;;;;;33.60;19.23;;;;;;;;;;5003531;28;20034;-80
2023/12/01 12:33:36;;;;;;;37.47;20.83;;;;;;;;;;4990033;28;20077;-79
2023/12/01 12:36:04;;;;;;;34.90;19.02;;;;;;;;;;5004690;28;20079;-80
2023/12/01 12:38:30;;;;;;;37.80;19.95;;;;;;;;;;5002366;28;20054;-85
2023/12/01 12:40:56;;;;;;;35.70;18.48;;;;;;;;;;4973349;28;20056;-85
2023/12/01 12:43:23;;;;;;;37.92;19.33;;;;;;;;;;4972559;28;20073;-85
2023/12/01 12:45:50;;;;;;;38.33;19.65;;;;;;;;;;4987349;28;20402;-85
2023/12/01 12:48:16;;;;;;;36.92;19.23;;;;;;;;;;4970683;28;20038;-85
2023/12/01 12:50:43;;;;;;;33.17;18.13;;;;;;;;;;4969142;28;20483;-84
2023/12/01 12:53:09;;;;;;;30.48;17.77;;;;;;;;;;4971007;28;20410;-84
2023/12/01 12:55:35;;;;;;;37.17;19.25;;;;;;;;;;4970316;28;20064;-83
2023/12/01 12:58:02;;;;;;;34.88;17.75;;;;;;;;;;4971930;28;20082;-84
2023/12/01 13:00:28;;;;;;;32.70;17.80;;;;;;;;;;4988413;28;20042;-83
2023/12/01 13:02:54;;;;;;;34.13;17.50;;;;;;;;;;4989308;28;20482;-85
2023/12/01 13:05:21;;;;;;;30.95;18.15;;;;;;;;;;4954915;28;20038;-84
2023/12/01 13:07:47;;;;;;;41.03;18.00;;;;;;;;;;4991745;28;20884;-84
2023/12/01 13:10:14;;;;;;;33.00;17.70;;;;;;;;;;4957507;28;20137;-84
2023/12/01 13:12:40;;;;;;;35.40;18.70;;;;;;;;;;4974826;28;20446;-85
2023/12/01 13:15:07;;;;;;;29.10;16.98;;;;;;;;;;4983652;28;20045;-84
2023/12/01 13:17:34;;;;;;;34.20;18.55;;;;;;;;;;4974734;28;20514;-83
2023/12/01 13:20:00;;;;;;;35.63;18.65;;;;;;;;;;4955308;28;20042;-85
2023/12/01 13:22:26;;;;;;;34.30;19.45;;;;;;;;;;4973334;28;20031;-84
2023/12/01 13:24:53;;;;;;;34.88;19.45;;;;;;;;;;4990342;28;20502;-85
2023/12/01 13:27:19;;;;;;;34.65;17.80;;;;;;;;;;4969643;28;20042;-81
2023/12/01 13:29:46;;;;;;;31.10;17.67;;;;;;;;;;4957526;28;20148;-79
2023/12/01 13:32:13;;;;;;;37.17;19.95;;;;;;;;;;4972965;28;20038;-79
2023/12/01 13:34:40;;;;;;;36.92;18.48;;;;;;;;;;5004846;28;20129;-79
2023/12/01 13:37:07;;;;;;;41.33;20.10;;;;;;;;;;4972987;28;20093;-80
2023/12/01 13:39:33;;;;;;;43.97;23.25;;;;;;;;;;4981586;28;20065;-79
2023/12/01 13:41:59;;;;;;;45.15;21.63;;;;;;;;;;4976559;28;20029;-80
2023/12/01 13:44:26;;;;;;;48.88;21.45;;;;;;;;;;4973847;28;20034;-79
2023/12/01 13:46:53;;;;;;;48.10;23.85;;;;;;;;;;4969338;28;20050;-79
2023/12/01 13:49:19;;;;;;;44.65;21.63;;;;;;;;;;4971580;28;20038;-79
2023/12/01 13:51:48;;;;;;;46.80;23.05;;;;;;;;;;4951851;28;20147;-79
2023/12/01 13:54:14;;;;;;;45.42;22.63;;;;;;;;;;4988416;28;20050;-79
2023/12/01 13:56:40;;;;;;;45.83;21.98;;;;;;;;;;4999955;28;20467;-79
2023/12/01 13:59:06;;;;;;;48.03;22.73;;;;;;;;;;4971778;28;20101;-79
2023/12/01 14:01:32;;;;;;;48.30;21.50;;;;;;;;;;4971453;28;20087;-79
2023/12/01 14:03:59;;;;;;;46.75;22.80;;;;;;;;;;5003425;28;20513;-79
2023/12/01 14:06:25;;;;;;;42.97;22.40;;;;;;;;;;5004127;28;20482;-79
2023/12/01 14:08:51;;;;;;;41.88;21.45;;;;;;;;;;4972032;28;20502;-79
2023/12/01 14:11:17;;;;;;;46.25;22.23;;;;;;;;;;4971647;28;20441;-79
2023/12/01 14:13:43;;;;;;;38.90;19.38;;;;;;;;;;4957289;28;20046;-80
2023/12/01 14:16:09;;;;;;;41.22;20.58;;;;;;;;;;4971948;28;20038;-78
2023/12/01 14:18:36;;;;;;;40.85;20.85;;;;;;;;;;4966782;28;20142;-79
2023/12/01 14:21:02;;;;;;;44.33;20.80;;;;;;;;;;5003631;28;20140;-79